Time;durP1;ratioP1;P1;durP2;ratioP2;P2;SDS_P1;SDS_P2;PMS_P1;PMS_P2;Temp;Humidity;BMP_temperature;BMP_pressure;BME280_temperature;BME280_humidity;BME280_pressure;Samples;Min_cycle;Max_cycle;Signal;HPM_P1;HPM_P2
2022/12/20 04:02:42;;;;;;;;;;;11.70;99.90;;;;;;5064972;23;19934;-70
2022/12/20 04:05:11;;;;;;;;;;;11.60;99.90;;;;;;4906463;29;19931;-70
2022/12/20 04:07:38;;;;;;;;;;;11.50;99.90;;;;;;4906229;29;19934;-70
2022/12/20 04:10:05;;;;;;;;;;;11.50;99.90;;;;;;4907746;29;19927;-68
2022/12/20 04:12:32;;;;;;;;;;;11.50;99.90;;;;;;4903808;29;20391;-71
2022/12/20 04:14:59;;;;;;;;;;;11.50;99.90;;;;;;4904957;29;20299;-70
2022/12/20 04:17:28;;;;;;;;;;;11.40;99.90;;;;;;4900138;29;19950;-68
2022/12/20 04:19:56;;;;;;;;;;;11.40;99.90;;;;;;4887450;29;20299;-71
2022/12/20 04:22:23;;;;;;;;;;;11.30;99.90;;;;;;4902923;29;19935;-70
2022/12/20 04:24:56;;;;;;;;;;;11.30;99.90;;;;;;4904361;29;19950;-70
2022/12/20 04:27:30;;;;;;;;;;;11.20;99.90;;;;;;4901032;29;20011;-70
2022/12/20 04:29:58;;;;;;;;;;;11.20;99.90;;;;;;4889474;29;19927;-69
2022/12/20 04:32:24;;;;;;;;;;;11.30;99.90;;;;;;4901546;29;19934;-69
2022/12/20 04:34:51;;;;;;;;;;;11.40;99.90;;;;;;4905367;29;20445;-70
2022/12/20 04:37:20;;;;;;;;;;;11.60;99.90;;;;;;4886425;29;20030;-70
2022/12/20 04:39:52;;;;;;;;;;;11.60;99.90;;;;;;4897358;29;19979;-69
2022/12/20 04:42:24;;;;;;;;;;;11.60;99.90;;;;;;4901323;29;19927;-70
2022/12/20 04:44:52;;;;;;;;;;;11.70;99.90;;;;;;4885422;29;19971;-71
2022/12/20 04:47:24;;;;;;;;;;;11.80;99.90;;;;;;4905437;29;19935;-70
2022/12/20 04:49:52;;;;;;;;;;;11.90;99.90;;;;;;4901958;29;20236;-70
2022/12/20 04:55:05;;;;;;;;;;;12.00;99.90;;;;;;4903470;29;19935;-71
2022/12/20 04:57:33;;;;;;;;;;;12.00;99.90;;;;;;4889374;29;19932;-70
2022/12/20 05:00:01;;;;;;;;;;;12.10;99.90;;;;;;4886056;29;19935;-70
2022/12/20 05:02:28;;;;;;;;;;;12.10;99.90;;;;;;4902298;29;19959;-70
2022/12/20 05:05:04;;;;;;;;;;;12.00;99.90;;;;;;4886003;29;20402;-70
2022/12/20 05:07:37;;;;;;;;;;;12.00;99.90;;;;;;4901360;29;19934;-70
2022/12/20 05:10:04;;;;;;;;;;;12.10;99.90;;;;;;4888580;29;19928;-70
2022/12/20 05:12:31;;;;;;;;;;;12.10;99.90;;;;;;4903710;29;19935;-69
2022/12/20 05:15:00;;;;;;;;;;;12.10;99.90;;;;;;4904407;29;19932;-69
2022/12/20 05:17:27;;;;;;;;;;;12.10;99.90;;;;;;4902642;29;19931;-70
2022/12/20 05:19:54;;;;;;;;;;;12.10;99.90;;;;;;4891351;29;19928;-70
2022/12/20 05:27:59;;;;;;;;;;;12.20;99.90;;;;;;4896413;29;19940;-69
2022/12/20 05:30:28;;;;;;;;;;;12.10;99.90;;;;;;4900953;29;20021;-70
2022/12/20 05:32:55;;;;;;;;;;;12.10;99.90;;;;;;4902501;29;20387;-70
2022/12/20 05:35:22;;;;;;;;;;;12.10;99.90;;;;;;4902906;29;19927;-69
2022/12/20 05:37:54;;;;;;;;;;;12.10;99.90;;;;;;4889312;29;20014;-68
2022/12/20 05:40:23;;;;;;;;;;;12.20;99.90;;;;;;4886494;29;19975;-70
2022/12/20 05:42:50;;;;;;;;;;;12.10;99.90;;;;;;4905034;29;19939;-70
2022/12/20 05:45:18;;;;;;;;;;;12.20;99.90;;;;;;4902700;29;20371;-70
2022/12/20 05:48:00;;;;;;;;;;;12.10;99.90;;;;;;4898566;29;19928;-67
2022/12/20 05:50:27;;;;;;;;;;;12.10;99.90;;;;;;4888517;29;19928;-70
2022/12/20 05:53:13;;;;;;;;;;;12.10;99.90;;;;;;4888483;29;20337;-69
2022/12/20 05:55:49;;;;;;;;;;;12.10;99.90;;;;;;4888822;29;20019;-70
2022/12/20 05:58:16;;;;;;;;;;;12.20;99.90;;;;;;4883247;29;19950;-69
2022/12/20 06:00:55;;;;;;;;;;;12.30;99.90;;;;;;4902544;29;19931;-69
2022/12/20 06:03:22;;;;;;;;;;;12.30;99.90;;;;;;4886765;29;19928;-70
2022/12/20 06:05:50;;;;;;;;;;;12.20;99.90;;;;;;4884165;29;20316;-71
2022/12/20 06:08:24;;;;;;;;;;;12.30;99.90;;;;;;4899023;29;20322;-70
2022/12/20 06:10:54;;;;;;;;;;;12.30;99.90;;;;;;4906390;29;19927;-70
2022/12/20 06:13:22;;;;;;;;;;;12.40;99.90;;;;;;4893081;29;19976;-68
2022/12/20 06:15:51;;;;;;;;;;;12.50;99.90;;;;;;4881828;29;19996;-70
2022/12/20 06:18:20;;;;;;;;;;;12.60;99.90;;;;;;4894346;29;19931;-67
2022/12/20 06:20:50;;;;;;;;;;;12.70;99.90;;;;;;4900897;29;19979;-69
2022/12/20 06:23:19;;;;;;;;;;;12.70;99.90;;;;;;4902643;29;20391;-69
2022/12/20 06:25:56;;;;;;;;;;;12.80;99.90;;;;;;4885340;29;19927;-68
2022/12/20 06:28:24;;;;;;;;;;;12.80;99.90;;;;;;4889670;29;19959;-69
2022/12/20 06:30:52;;;;;;;;;;;12.80;99.90;;;;;;4886387;29;19987;-70
2022/12/20 06:33:30;;;;;;;;;;;12.90;99.90;;;;;;4883749;29;19955;-70
2022/12/20 06:35:57;;;;;;;;;;;12.80;99.90;;;;;;4902475;29;19927;-68
2022/12/20 06:38:24;;;;;;;;;;;12.80;99.90;;;;;;4896841;29;19931;-70
2022/12/20 06:40:51;;;;;;;;;;;12.90;99.90;;;;;;4887030;29;19931;-72
2022/12/20 06:43:19;;;;;;;;;;;12.90;99.90;;;;;;4884842;29;19954;-69
2022/12/20 06:45:47;;;;;;;;;;;12.90;99.90;;;;;;4886613;29;19947;-70
2022/12/20 06:48:14;;;;;;;;;;;12.80;99.90;;;;;;4886417;29;20034;-69
2022/12/20 06:50:43;;;;;;;;;;;12.80;99.90;;;;;;4885730;29;20339;-71
2022/12/20 06:53:10;;;;;;;;;;;12.80;99.90;;;;;;4881920;29;20418;-70
2022/12/20 06:55:36;;;;;;;;;;;12.80;99.90;;;;;;4889934;29;19928;-68
2022/12/20 06:58:03;;;;;;;;;;;12.70;99.90;;;;;;4888257;29;19927;-75
2022/12/20 07:00:32;;;;;;;;;;;12.80;99.90;;;;;;4903071;29;19928;-70
2022/12/20 07:02:58;;;;;;;;;;;12.80;99.90;;;;;;4888609;29;19931;-70
2022/12/20 07:05:25;;;;;;;;;;;12.80;99.90;;;;;;4889841;29;19927;-70
2022/12/20 07:07:52;;;;;;;;;;;12.80;99.90;;;;;;4901715;29;19931;-70
2022/12/20 07:10:19;;;;;;;;;;;12.80;99.90;;;;;;4889066;29;19934;-70
2022/12/20 07:12:45;;;;;;;;;;;12.80;99.90;;;;;;4890262;29;19935;-72
2022/12/20 07:15:12;;;;;;;;;;;12.80;99.90;;;;;;4887043;29;19931;-71
2022/12/20 07:17:41;;;;;;;;;;;12.80;99.90;;;;;;4904688;29;19954;-71
2022/12/20 07:20:08;;;;;;;;;;;12.80;99.90;;;;;;4889694;29;19935;-71
2022/12/20 07:22:35;;;;;;;;;;;12.90;99.90;;;;;;4905058;29;19931;-70
2022/12/20 07:25:01;;;;;;;;;;;12.90;99.90;;;;;;4904120;29;19931;-71
2022/12/20 07:27:28;;;;;;;;;;;12.90;99.90;;;;;;4906079;29;19927;-70
2022/12/20 07:29:55;;;;;;;;;;;12.90;99.90;;;;;;4897175;29;19934;-68
2022/12/20 07:32:22;;;;;;;;;;;12.90;99.90;;;;;;4904829;29;20389;-74
2022/12/20 07:34:50;;;;;;;;;;;12.80;99.90;;;;;;4908964;29;19935;-75
2022/12/20 07:37:17;;;;;;;;;;;12.80;99.90;;;;;;4885993;29;20373;-74
2022/12/20 07:39:44;;;;;;;;;;;12.80;99.90;;;;;;4886639;29;19928;-74
2022/12/20 07:42:11;;;;;;;;;;;12.80;99.90;;;;;;4886572;29;19928;-74
2022/12/20 07:44:42;;;;;;;;;;;12.70;99.90;;;;;;4904309;29;20294;-73
2022/12/20 07:47:09;;;;;;;;;;;12.70;99.90;;;;;;4888567;29;19935;-74
2022/12/20 07:49:35;;;;;;;;;;;12.60;99.90;;;;;;4888195;29;19934;-74
2022/12/20 07:52:04;;;;;;;;;;;12.70;99.90;;;;;;4903697;29;19931;-73
2022/12/20 07:54:33;;;;;;;;;;;12.70;99.90;;;;;;4907968;29;19935;-71
2022/12/20 07:57:02;;;;;;;;;;;12.70;99.90;;;;;;4903733;29;19928;-73
2022/12/20 07:59:35;;;;;;;;;;;12.60;99.90;;;;;;4891823;29;19932;-72
2022/12/20 08:02:02;;;;;;;;;;;12.60;99.90;;;;;;4906415;29;19927;-74
2022/12/20 08:04:29;;;;;;;;;;;12.70;99.90;;;;;;4891332;29;19927;-74
2022/12/20 08:06:58;;;;;;;;;;;12.70;99.90;;;;;;4900947;29;20409;-75
2022/12/20 08:09:28;;;;;;;;;;;12.70;99.90;;;;;;4905992;29;19936;-74
2022/12/20 08:11:55;;;;;;;;;;;12.70;99.90;;;;;;4888896;29;19928;-76
2022/12/20 08:14:22;;;;;;;;;;;12.80;99.90;;;;;;4891351;29;19934;-74
2022/12/20 08:16:48;;;;;;;;;;;12.80;99.90;;;;;;4891882;29;19935;-75
2022/12/20 08:19:15;;;;;;;;;;;12.90;99.90;;;;;;4903787;29;19943;-75
2022/12/20 08:21:42;;;;;;;;;;;12.90;99.90;;;;;;4906648;29;19931;-74
2022/12/20 08:24:09;;;;;;;;;;;13.00;99.90;;;;;;4884107;29;19935;-75
2022/12/20 08:26:38;;;;;;;;;;;13.00;99.90;;;;;;4887444;29;19935;-73
2022/12/20 08:29:05;;;;;;;;;;;13.00;99.90;;;;;;4885843;29;19932;-73
2022/12/20 08:31:32;;;;;;;;;;;13.00;99.90;;;;;;4881997;29;20423;-73
2022/12/20 08:33:59;;;;;;;;;;;13.10;99.90;;;;;;4882398;29;19935;-73
2022/12/20 08:36:26;;;;;;;;;;;13.10;99.90;;;;;;4901220;29;19935;-73
2022/12/20 08:38:53;;;;;;;;;;;13.10;99.90;;;;;;4886008;29;20014;-72
2022/12/20 08:41:22;;;;;;;;;;;13.10;99.90;;;;;;4885294;29;19932;-73
2022/12/20 08:43:51;;;;;;;;;;;13.10;99.90;;;;;;4901364;29;19934;-73
2022/12/20 08:46:18;;;;;;;;;;;13.10;99.90;;;;;;4907260;29;19927;-74
2022/12/20 08:48:45;;;;;;;;;;;13.10;99.90;;;;;;4890574;29;19936;-72
2022/12/20 08:51:11;;;;;;;;;;;13.10;99.90;;;;;;4900867;29;19972;-72
2022/12/20 08:53:39;;;;;;;;;;;13.10;99.90;;;;;;4904658;29;19928;-71
2022/12/20 08:56:06;;;;;;;;;;;13.10;99.90;;;;;;4891222;29;19927;-71
2022/12/20 08:58:33;;;;;;;;;;;13.10;99.90;;;;;;4901321;29;19934;-71
2022/12/20 09:01:04;;;;;;;;;;;13.10;99.90;;;;;;4883048;29;19942;-72
2022/12/20 09:03:31;;;;;;;;;;;13.20;99.90;;;;;;4884824;29;19928;-70
2022/12/20 09:05:58;;;;;;;;;;;13.20;99.90;;;;;;4882892;29;19927;-72
2022/12/20 09:08:25;;;;;;;;;;;13.20;99.90;;;;;;4885444;29;20321;-71
2022/12/20 09:10:52;;;;;;;;;;;13.20;99.90;;;;;;4885966;29;19928;-73
2022/12/20 09:13:20;;;;;;;;;;;13.10;99.90;;;;;;4895777;29;20391;-72
2022/12/20 09:15:47;;;;;;;;;;;13.10;99.90;;;;;;4885395;29;19939;-72
2022/12/20 09:18:15;;;;;;;;;;;13.10;99.90;;;;;;4885203;29;19928;-74
2022/12/20 09:20:44;;;;;;;;;;;13.10;99.90;;;;;;4881255;29;19932;-73
2022/12/20 09:23:11;;;;;;;;;;;13.10;99.90;;;;;;4890107;29;19928;-73
2022/12/20 09:25:38;;;;;;;;;;;13.00;99.90;;;;;;4885885;29;19928;-73
2022/12/20 09:28:05;;;;;;;;;;;13.00;99.90;;;;;;4888147;29;19928;-74
2022/12/20 09:30:32;;;;;;;;;;;13.00;99.90;;;;;;4888643;29;19928;-75
2022/12/20 09:32:59;;;;;;;;;;;13.00;99.90;;;;;;4893218;29;19935;-75
2022/12/20 09:35:27;;;;;;;;;;;13.00;99.90;;;;;;4888720;29;20387;-76
2022/12/20 09:37:54;;;;;;;;;;;12.90;99.90;;;;;;4897779;29;19934;-74
2022/12/20 09:40:22;;;;;;;;;;;12.90;99.90;;;;;;4887308;29;19952;-72
2022/12/20 09:42:49;;;;;;;;;;;12.90;99.90;;;;;;4893209;29;19932;-73
2022/12/20 09:45:21;;;;;;;;;;;12.90;99.90;;;;;;4900720;29;19938;-75
2022/12/20 09:47:48;;;;;;;;;;;13.00;99.90;;;;;;4904450;29;20406;-74
2022/12/20 09:50:16;;;;;;;;;;;13.00;99.90;;;;;;4883716;29;19965;-72
2022/12/20 09:52:55;;;;;;;;;;;13.00;99.90;;;;;;4901282;29;20454;-73
2022/12/20 09:55:27;;;;;;;;;;;13.10;99.90;;;;;;4887159;29;20302;-77
2022/12/20 09:57:59;;;;;;;;;;;13.10;99.90;;;;;;4876627;29;19950;-74
2022/12/20 10:00:25;;;;;;;;;;;13.20;99.90;;;;;;4894133;29;19931;-75
2022/12/20 10:02:52;;;;;;;;;;;13.20;99.90;;;;;;4898977;29;19927;-76
2022/12/20 10:05:22;;;;;;;;;;;13.30;99.90;;;;;;4886042;29;19927;-75
2022/12/20 10:07:53;;;;;;;;;;;13.30;99.90;;;;;;4885679;29;19927;-73
2022/12/20 10:10:31;;;;;;;;;;;13.30;99.90;;;;;;4887820;29;19931;-74
2022/12/20 10:13:01;;;;;;;;;;;13.40;99.90;;;;;;4899399;29;20419;-74
2022/12/20 10:15:30;;;;;;;;;;;13.40;99.90;;;;;;4883226;29;19934;-74
2022/12/20 10:18:21;;;;;;;;;;;13.40;99.90;;;;;;4883143;29;19934;-74
2022/12/20 10:20:57;;;;;;;;;;;13.40;99.90;;;;;;4875182;29;20391;-75
2022/12/20 10:23:27;;;;;;;;;;;13.40;99.90;;;;;;4894659;29;19931;-76
2022/12/20 10:25:56;;;;;;;;;;;13.50;99.90;;;;;;4890113;29;19927;-74
2022/12/20 10:28:26;;;;;;;;;;;13.60;99.90;;;;;;4881123;29;19932;-75
2022/12/20 10:30:53;;;;;;;;;;;13.70;99.90;;;;;;4898570;29;20387;-76
2022/12/20 10:33:21;;;;;;;;;;;14.10;99.90;;;;;;4901033;29;19928;-75
2022/12/20 10:35:49;;;;;;;;;;;14.40;99.90;;;;;;4887631;29;19936;-75
2022/12/20 10:38:17;;;;;;;;;;;14.20;99.90;;;;;;4893139;29;20014;-75
2022/12/20 10:40:45;;;;;;;;;;;14.10;99.90;;;;;;4908439;29;19932;-74
2022/12/20 10:43:17;;;;;;;;;;;14.10;99.90;;;;;;4884854;29;20011;-73
2022/12/20 10:45:44;;;;;;;;;;;14.10;99.90;;;;;;4906152;29;19979;-76
2022/12/20 10:48:24;;;;;;;;;;;13.90;99.90;;;;;;4889435;29;19962;-74
2022/12/20 10:50:55;;;;;;;;;;;13.90;99.90;;;;;;4888070;29;19949;-75
2022/12/20 10:53:24;;;;;;;;;;;13.90;99.90;;;;;;4901912;29;20356;-75
2022/12/20 10:55:51;;;;;;;;;;;13.90;99.90;;;;;;4901858;29;19928;-74
2022/12/20 10:58:22;;;;;;;;;;;13.90;99.90;;;;;;4888090;29;19932;-73
2022/12/20 11:00:49;;;;;;;;;;;14.00;99.90;;;;;;4903430;29;19934;-77
2022/12/20 11:03:17;;;;;;;;;;;14.00;99.90;;;;;;4888771;29;20026;-75
2022/12/20 11:05:55;;;;;;;;;;;13.90;99.90;;;;;;4896839;29;19935;-74
2022/12/20 11:08:23;;;;;;;;;;;13.90;99.90;;;;;;4895487;29;19928;-74
2022/12/20 11:10:49;;;;;;;;;;;13.90;99.90;;;;;;4902647;29;20021;-74
2022/12/20 11:13:22;;;;;;;;;;;13.90;99.90;;;;;;4898687;29;19935;-75
2022/12/20 11:15:50;;;;;;;;;;;13.90;99.90;;;;;;4890265;29;19927;-75
2022/12/20 11:18:20;;;;;;;;;;;13.90;99.90;;;;;;4891883;29;19931;-74
2022/12/20 11:20:50;;;;;;;;;;;13.90;99.90;;;;;;4889216;29;19971;-75
2022/12/20 11:23:22;;;;;;;;;;;13.90;99.90;;;;;;4891173;29;19934;-74
2022/12/20 11:25:55;;;;;;;;;;;13.90;99.90;;;;;;4894623;29;19928;-74
2022/12/20 11:28:36;;;;;;;;;;;13.90;99.90;;;;;;4889742;29;19939;-73
2022/12/20 11:31:09;;;;;;;;;;;13.90;99.90;;;;;;4883256;29;19928;-74
2022/12/20 11:33:41;;;;;;;;;;;13.90;99.90;;;;;;4892155;29;20014;-73
2022/12/20 11:36:13;;;;;;;;;;;13.80;99.90;;;;;;4902065;29;19927;-73
2022/12/20 11:38:41;;;;;;;;;;;13.80;99.90;;;;;;4903188;29;19928;-74
2022/12/20 11:41:17;;;;;;;;;;;13.80;99.90;;;;;;4889061;29;19928;-73
2022/12/20 11:43:53;;;;;;;;;;;13.80;99.90;;;;;;4886904;29;19932;-71
2022/12/20 11:46:26;;;;;;;;;;;13.70;99.90;;;;;;4894002;29;19927;-74
2022/12/20 11:49:10;;;;;;;;;;;13.70;99.90;;;;;;4895892;29;19934;-74
2022/12/20 11:51:42;;;;;;;;;;;13.70;99.90;;;;;;4878221;29;19934;-73
2022/12/20 11:54:11;;;;;;;;;;;13.60;99.90;;;;;;4889554;29;19935;-74
2022/12/20 11:56:39;;;;;;;;;;;13.60;99.90;;;;;;4883973;29;19934;-75
2022/12/20 11:59:12;;;;;;;;;;;13.50;99.90;;;;;;4900012;29;19932;-75
2022/12/20 12:01:41;;;;;;;;;;;13.40;99.90;;;;;;4885938;29;19931;-75
2022/12/20 12:04:11;;;;;;;;;;;13.40;99.90;;;;;;4900018;29;20380;-74
2022/12/20 12:06:40;;;;;;;;;;;13.40;99.90;;;;;;4891135;29;19927;-74
2022/12/20 12:09:11;;;;;;;;;;;13.30;99.90;;;;;;4897045;29;19928;-74
2022/12/20 12:11:40;;;;;;;;;;;13.20;99.90;;;;;;4885204;29;20361;-75
2022/12/20 12:14:14;;;;;;;;;;;13.10;99.90;;;;;;4886727;29;19935;-74
2022/12/20 12:16:45;;;;;;;;;;;13.00;99.90;;;;;;4895479;29;20054;-74
2022/12/20 12:19:13;;;;;;;;;;;12.90;99.90;;;;;;4896267;29;20455;-74
2022/12/20 12:21:43;;;;;;;;;;;12.80;99.90;;;;;;4895469;29;20354;-74
2022/12/20 12:24:16;;;;;;;;;;;12.70;99.90;;;;;;4898203;29;19928;-77
2022/12/20 12:26:42;;;;;;;;;;;12.60;99.90;;;;;;4893686;29;20026;-74
2022/12/20 12:29:12;;;;;;;;;;;12.60;99.90;;;;;;4882324;29;20310;-76
2022/12/20 12:31:42;;;;;;;;;;;12.60;99.90;;;;;;4881033;29;19934;-74
2022/12/20 12:34:13;;;;;;;;;;;12.70;99.90;;;;;;4880202;29;19928;-74
2022/12/20 12:36:47;;;;;;;;;;;12.80;99.90;;;;;;4879498;29;19928;-76
2022/12/20 12:39:22;;;;;;;;;;;12.90;99.90;;;;;;4888833;29;19927;-74
2022/12/20 12:42:01;;;;;;;;;;;13.00;99.90;;;;;;4901278;29;19950;-75
2022/12/20 12:44:43;;;;;;;;;;;13.10;99.90;;;;;;4891912;29;19927;-74
2022/12/20 12:47:14;;;;;;;;;;;13.10;99.90;;;;;;4891514;29;19971;-81
2022/12/20 12:49:41;;;;;;;;;;;13.00;99.90;;;;;;4890342;29;19928;-78
2022/12/20 12:52:26;;;;;;;;;;;13.00;99.90;;;;;;4884435;29;19928;-77
2022/12/20 12:54:53;;;;;;;;;;;13.00;99.90;;;;;;4884471;29;19927;-77
2022/12/20 12:57:20;;;;;;;;;;;13.10;99.90;;;;;;4886719;29;19927;-76
2022/12/20 12:59:49;;;;;;;;;;;13.10;99.90;;;;;;4898939;29;19943;-77
2022/12/20 13:02:23;;;;;;;;;;;13.20;99.90;;;;;;4895442;29;20023;-76
2022/12/20 13:04:54;;;;;;;;;;;13.30;99.90;;;;;;4902326;29;19932;-79
2022/12/20 13:07:25;;;;;;;;;;;13.40;99.90;;;;;;4900338;29;19935;-79
2022/12/20 13:09:52;;;;;;;;;;;13.40;99.90;;;;;;4900775;29;19935;-77
2022/12/20 13:12:49;;;;;;;;;;;13.50;99.90;;;;;;4893573;29;20379;-77
2022/12/20 13:15:35;;;;;;;;;;;13.50;99.90;;;;;;4901533;29;19942;-80
2022/12/20 13:18:17;;;;;;;;;;;13.50;99.90;;;;;;4894599;29;19980;-74
2022/12/20 13:21:03;;;;;;;;;;;13.50;99.90;;;;;;4900724;29;19927;-74
2022/12/20 13:23:30;;;;;;;;;;;13.50;99.90;;;;;;4899495;29;20036;-77
2022/12/20 13:25:57;;;;;;;;;;;13.60;99.90;;;;;;4902614;29;20387;-72
2022/12/20 13:28:43;;;;;;;;;;;13.60;99.90;;;;;;4881916;29;19951;-73
2022/12/20 13:31:29;;;;;;;;;;;13.60;99.90;;;;;;4896142;29;19932;-73
2022/12/20 13:34:00;;;;;;;;;;;13.50;99.90;;;;;;4895201;29;19927;-74
2022/12/20 13:36:31;;;;;;;;;;;13.50;99.90;;;;;;4894620;29;20404;-74
2022/12/20 13:38:59;;;;;;;;;;;13.40;99.90;;;;;;4881248;29;19927;-74
2022/12/20 13:41:37;;;;;;;;;;;13.40;99.90;;;;;;4880827;29;19931;-75
2022/12/20 13:44:26;;;;;;;;;;;13.40;99.90;;;;;;4896680;29;19935;-74
2022/12/20 13:46:58;;;;;;;;;;;13.40;99.90;;;;;;4894506;29;19928;-74
2022/12/20 13:49:27;;;;;;;;;;;13.30;99.90;;;;;;4895303;29;19935;-74
2022/12/20 13:52:16;;;;;;;;;;;13.30;99.90;;;;;;4895225;29;19932;-75
2022/12/20 13:54:55;;;;;;;;;;;13.20;99.90;;;;;;4882668;29;19934;-74
2022/12/20 13:57:26;;;;;;;;;;;13.20;99.90;;;;;;4882089;29;19967;-76
2022/12/20 13:59:55;;;;;;;;;;;13.10;99.90;;;;;;4885985;29;19928;-75
2022/12/20 14:02:23;;;;;;;;;;;13.10;99.90;;;;;;4886542;29;20388;-74
2022/12/20 14:04:56;;;;;;;;;;;13.10;99.90;;;;;;4902640;29;19927;-75
2022/12/20 14:07:23;;;;;;;;;;;13.00;99.90;;;;;;4881357;29;20388;-75
2022/12/20 14:09:55;;;;;;;;;;;13.00;99.90;;;;;;4901242;29;19928;-75
2022/12/20 14:12:22;;;;;;;;;;;12.90;99.90;;;;;;4896459;29;19935;-75
2022/12/20 14:14:50;;;;;;;;;;;12.90;99.90;;;;;;4889695;29;20323;-75
2022/12/20 14:17:23;;;;;;;;;;;12.90;99.90;;;;;;4883306;29;20122;-75
2022/12/20 14:20:03;;;;;;;;;;;12.80;99.90;;;;;;4897583;29;20382;-75
2022/12/20 14:22:30;;;;;;;;;;;12.80;99.90;;;;;;4897074;29;19927;-77
2022/12/20 14:24:57;;;;;;;;;;;12.80;99.90;;;;;;4882726;29;19938;-75
2022/12/20 14:27:26;;;;;;;;;;;12.80;99.90;;;;;;4883465;29;20363;-67
2022/12/20 14:29:53;;;;;;;;;;;12.80;99.90;;;;;;4890336;29;20344;-75
2022/12/20 14:32:21;;;;;;;;;;;12.80;99.90;;;;;;4891813;29;19935;-76
2022/12/20 14:34:48;;;;;;;;;;;12.70;99.90;;;;;;4893156;29;19931;-74
2022/12/20 14:37:27;;;;;;;;;;;12.70;99.90;;;;;;4896323;29;19936;-72
2022/12/20 14:39:55;;;;;;;;;;;12.70;99.90;;;;;;4898424;29;19927;-73
2022/12/20 14:42:22;;;;;;;;;;;12.60;99.90;;;;;;4886776;29;20391;-71
2022/12/20 14:44:48;;;;;;;;;;;12.60;99.90;;;;;;4896626;29;20384;-73
2022/12/20 14:47:18;;;;;;;;;;;12.70;99.90;;;;;;4891189;29;19943;-73
2022/12/20 14:49:48;;;;;;;;;;;12.70;99.90;;;;;;4893889;29;19974;-73
2022/12/20 14:52:16;;;;;;;;;;;12.70;99.90;;;;;;4878080;29;19959;-73
2022/12/20 14:54:46;;;;;;;;;;;12.60;99.90;;;;;;4881498;29;20023;-73
2022/12/20 14:57:20;;;;;;;;;;;12.50;99.90;;;;;;4874420;29;19950;-74
2022/12/20 14:59:56;;;;;;;;;;;12.50;99.90;;;;;;4898042;29;19935;-75
2022/12/20 15:02:33;;;;;;;;;;;12.40;99.90;;;;;;4892009;29;19928;-72
2022/12/20 15:05:00;;;;;;;;;;;12.40;99.90;;;;;;4889964;29;19928;-72
2022/12/20 15:07:30;;;;;;;;;;;12.30;99.90;;;;;;4876868;29;19975;-73
2022/12/20 15:09:59;;;;;;;;;;;12.30;99.90;;;;;;4878203;29;20306;-72
2022/12/20 15:12:29;;;;;;;;;;;12.20;99.90;;;;;;4881365;29;19927;-73
2022/12/20 15:14:55;;;;;;;;;;;12.20;99.90;;;;;;4884823;29;19937;-74
2022/12/20 15:17:22;;;;;;;;;;;12.20;99.90;;;;;;4877951;29;19932;-73
2022/12/20 15:19:49;;;;;;;;;;;12.10;99.90;;;;;;4894303;29;19935;-74
2022/12/20 15:22:18;;;;;;;;;;;12.10;99.90;;;;;;4877564;29;19928;-74
2022/12/20 15:24:45;;;;;;;;;;;12.10;99.90;;;;;;4888128;29;20411;-74
2022/12/20 15:27:14;;;;;;;;;;;12.20;99.90;;;;;;4887489;29;19935;-73
2022/12/20 15:29:42;;;;;;;;;;;12.20;99.90;;;;;;4905020;29;19928;-74
2022/12/20 15:32:14;;;;;;;;;;;12.30;99.90;;;;;;4891905;29;20355;-74
2022/12/20 15:34:41;;;;;;;;;;;12.20;99.90;;;;;;4905994;29;19935;-72
2022/12/20 15:37:13;;;;;;;;;;;12.20;99.90;;;;;;4893392;29;19931;-76
2022/12/20 15:39:41;;;;;;;;;;;12.20;99.90;;;;;;4882509;29;19928;-73
2022/12/20 15:42:11;;;;;;;;;;;12.30;99.90;;;;;;4898631;29;19931;-74
2022/12/20 15:44:39;;;;;;;;;;;12.20;99.90;;;;;;4879571;29;19931;-73
2022/12/20 15:47:06;;;;;;;;;;;12.20;99.90;;;;;;4902952;29;20026;-74
2022/12/20 15:49:33;;;;;;;;;;;12.20;99.90;;;;;;4904236;29;19928;-73
2022/12/20 15:52:00;;;;;;;;;;;12.30;99.90;;;;;;4898118;29;20418;-73
2022/12/20 15:54:28;;;;;;;;;;;12.40;99.90;;;;;;4881873;29;20023;-75
2022/12/20 15:56:55;;;;;;;;;;;12.40;99.90;;;;;;4894343;29;20391;-74
2022/12/20 15:59:22;;;;;;;;;;;12.40;99.90;;;;;;4900640;29;19927;-73
2022/12/20 16:01:51;;;;;;;;;;;12.40;99.90;;;;;;4890365;29;19928;-73
2022/12/20 16:04:20;;;;;;;;;;;12.40;99.90;;;;;;4887069;29;19928;-72
2022/12/20 16:06:48;;;;;;;;;;;12.40;99.90;;;;;;4889923;29;19939;-74
2022/12/20 16:09:14;;;;;;;;;;;12.40;99.90;;;;;;4888752;29;19946;-73
2022/12/20 16:11:42;;;;;;;;;;;12.30;99.90;;;;;;4885106;29;19927;-72
2022/12/20 16:14:13;;;;;;;;;;;12.30;99.90;;;;;;4902070;29;19980;-73
2022/12/20 16:16:40;;;;;;;;;;;12.30;99.90;;;;;;4900477;29;20328;-72
2022/12/20 16:19:09;;;;;;;;;;;12.20;99.90;;;;;;4883994;29;19936;-73
2022/12/20 16:21:40;;;;;;;;;;;12.20;99.90;;;;;;4889800;29;19927;-72
2022/12/20 16:24:10;;;;;;;;;;;12.30;99.90;;;;;;4884268;29;19951;-72
2022/12/20 16:26:37;;;;;;;;;;;12.20;99.90;;;;;;4903728;29;19934;-74
2022/12/20 16:29:04;;;;;;;;;;;12.20;99.90;;;;;;4902237;29;19928;-74
2022/12/20 16:31:32;;;;;;;;;;;12.20;99.90;;;;;;4892300;29;19944;-73
2022/12/20 16:33:59;;;;;;;;;;;12.20;99.90;;;;;;4902109;29;19932;-74
2022/12/20 16:36:28;;;;;;;;;;;12.20;99.90;;;;;;4887596;29;19928;-74
2022/12/20 16:38:55;;;;;;;;;;;12.20;99.90;;;;;;4885767;29;19931;-75
2022/12/20 16:41:24;;;;;;;;;;;12.20;99.90;;;;;;4890818;29;19928;-74
2022/12/20 16:43:51;;;;;;;;;;;12.10;99.90;;;;;;4888173;29;19928;-75
2022/12/20 16:46:19;;;;;;;;;;;12.10;99.90;;;;;;4897293;29;20407;-74
2022/12/20 16:48:47;;;;;;;;;;;12.10;99.90;;;;;;4900679;29;19939;-73
2022/12/20 16:51:21;;;;;;;;;;;12.10;99.90;;;;;;4895221;29;19927;-73
2022/12/20 16:53:50;;;;;;;;;;;12.10;99.90;;;;;;4895555;29;19938;-76
2022/12/20 16:56:17;;;;;;;;;;;12.10;99.90;;;;;;4892881;29;19935;-74
2022/12/20 16:58:44;;;;;;;;;;;12.10;99.90;;;;;;4883494;29;19985;-72
2022/12/20 17:01:14;;;;;;;;;;;12.10;99.90;;;;;;4879639;29;20015;-73
2022/12/20 17:03:41;;;;;;;;;;;12.10;99.90;;;;;;4881991;29;20388;-74
2022/12/20 17:06:10;;;;;;;;;;;12.10;99.90;;;;;;4877540;29;20425;-73
2022/12/20 17:08:39;;;;;;;;;;;12.10;99.90;;;;;;4898724;29;19927;-72
2022/12/20 17:11:13;;;;;;;;;;;12.10;99.90;;;;;;4901720;29;19932;-73
2022/12/20 17:13:40;;;;;;;;;;;12.10;99.90;;;;;;4895195;29;19967;-73
2022/12/20 17:16:09;;;;;;;;;;;12.20;99.90;;;;;;4896517;29;19928;-73
2022/12/20 17:18:38;;;;;;;;;;;12.20;99.90;;;;;;4890560;29;19928;-74
2022/12/20 17:21:13;;;;;;;;;;;12.20;99.90;;;;;;4900556;29;20366;-74
2022/12/20 17:23:40;;;;;;;;;;;12.30;99.90;;;;;;4877698;29;19928;-73
2022/12/20 17:26:08;;;;;;;;;;;12.30;99.90;;;;;;4892959;29;19936;-73
2022/12/20 17:28:36;;;;;;;;;;;12.30;99.90;;;;;;4898250;29;19927;-73
2022/12/20 17:31:03;;;;;;;;;;;12.30;99.90;;;;;;4877259;29;19928;-73
2022/12/20 17:33:30;;;;;;;;;;;12.30;99.90;;;;;;4881007;29;19935;-72
2022/12/20 17:35:57;;;;;;;;;;;12.30;99.90;;;;;;4881965;29;20444;-74
2022/12/20 17:38:24;;;;;;;;;;;12.30;99.90;;;;;;4893160;29;19928;-73
2022/12/20 17:40:51;;;;;;;;;;;12.30;99.90;;;;;;4891052;29;19935;-74
2022/12/20 17:43:18;;;;;;;;;;;12.30;99.90;;;;;;4898014;29;19935;-74
2022/12/20 17:45:47;;;;;;;;;;;12.20;99.90;;;;;;4880803;29;19935;-74
2022/12/20 17:48:14;;;;;;;;;;;12.20;99.90;;;;;;4893110;29;19935;-73
2022/12/20 17:50:44;;;;;;;;;;;12.20;99.90;;;;;;4877087;29;19928;-73
2022/12/20 17:53:11;;;;;;;;;;;12.30;99.90;;;;;;4877565;29;20412;-72
2022/12/20 17:55:38;;;;;;;;;;;12.30;99.90;;;;;;4897665;29;19927;-73
2022/12/20 17:58:05;;;;;;;;;;;12.30;99.90;;;;;;4881347;29;19935;-75
2022/12/20 18:00:36;;;;;;;;;;;12.20;99.90;;;;;;4892912;29;20533;-74
2022/12/20 18:03:05;;;;;;;;;;;12.20;99.90;;;;;;4884799;29;19983;-74
2022/12/20 18:05:32;;;;;;;;;;;12.30;99.90;;;;;;4876770;29;19971;-73
2022/12/20 18:07:59;;;;;;;;;;;12.20;99.90;;;;;;4899169;29;19932;-74
2022/12/20 18:10:26;;;;;;;;;;;12.20;99.90;;;;;;4897694;29;19931;-74
2022/12/20 18:12:53;;;;;;;;;;;12.20;99.90;;;;;;4893879;29;19928;-75
2022/12/20 18:15:20;;;;;;;;;;;12.20;99.90;;;;;;4895232;29;19934;-75
2022/12/20 18:17:47;;;;;;;;;;;12.20;99.90;;;;;;4895249;29;19932;-74
2022/12/20 18:20:16;;;;;;;;;;;12.10;99.90;;;;;;4894182;29;19928;-74
2022/12/20 18:22:42;;;;;;;;;;;12.10;99.90;;;;;;4891690;29;19932;-73
2022/12/20 18:25:12;;;;;;;;;;;12.00;99.90;;;;;;4888732;29;20434;-74
2022/12/20 18:27:40;;;;;;;;;;;12.00;99.90;;;;;;4899762;29;20335;-74
2022/12/20 18:30:07;;;;;;;;;;;11.90;99.90;;;;;;4894759;29;19934;-72
2022/12/20 18:32:34;;;;;;;;;;;11.90;99.90;;;;;;4886580;29;20339;-71
2022/12/20 18:35:01;;;;;;;;;;;11.80;99.90;;;;;;4884030;29;19931;-73
2022/12/20 18:37:29;;;;;;;;;;;11.80;99.90;;;;;;4890162;29;19928;-72
2022/12/20 18:39:56;;;;;;;;;;;11.80;99.90;;;;;;4888737;29;19927;-72